sensor_id;sensor_type;location;lat;lon;timestamp;temperature;humidity
23556;DHT22;11956;53.184;8.578;2023-06-26T00:02:02;22.80;99.90
23556;DHT22;11956;53.184;8.578;2023-06-26T00:05:04;22.80;99.90
23556;DHT22;11956;53.184;8.578;2023-06-26T00:08:05;22.80;99.90
23556;DHT22;11956;53.184;8.578;2023-06-26T00:11:06;22.80;99.90
23556;DHT22;11956;53.184;8.578;2023-06-26T00:14:07;22.80;99.90
23556;DHT22;11956;53.184;8.578;2023-06-26T00:17:08;22.80;99.90
23556;DHT22;11956;53.184;8.578;2023-06-26T00:20:09;22.70;99.90
23556;DHT22;11956;53.184;8.578;2023-06-26T00:23:13;22.70;99.90
23556;DHT22;11956;53.184;8.578;2023-06-26T00:26:17;22.60;99.90
23556;DHT22;11956;53.184;8.578;2023-06-26T00:29:17;22.60;99.90
23556;DHT22;11956;53.184;8.578;2023-06-26T00:32:18;22.60;99.90
23556;DHT22;11956;53.184;8.578;2023-06-26T00:35:19;22.50;99.90
23556;DHT22;11956;53.184;8.578;2023-06-26T00:38:20;22.50;99.90
23556;DHT22;11956;53.184;8.578;2023-06-26T00:41:21;22.50;99.90
23556;DHT22;11956;53.184;8.578;2023-06-26T00:44:22;22.50;99.90
23556;DHT22;11956;53.184;8.578;2023-06-26T00:47:24;22.40;99.90
23556;DHT22;11956;53.184;8.578;2023-06-26T00:50:26;22.40;99.90
23556;DHT22;11956;53.184;8.578;2023-06-26T00:53:27;22.40;99.90
23556;DHT22;11956;53.184;8.578;2023-06-26T00:56:29;22.40;99.90
23556;DHT22;11956;53.184;8.578;2023-06-26T00:59:31;22.40;99.90
23556;DHT22;11956;53.184;8.578;2023-06-26T01:02:32;22.40;99.90
23556;DHT22;11956;53.184;8.578;2023-06-26T01:05:34;22.30;99.90
23556;DHT22;11956;53.184;8.578;2023-06-26T01:08:35;22.20;99.90
23556;DHT22;11956;53.184;8.578;2023-06-26T01:11:35;22.20;99.90
23556;DHT22;11956;53.184;8.578;2023-06-26T01:14:36;22.20;99.90
23556;DHT22;11956;53.184;8.578;2023-06-26T01:17:38;22.20;99.90
23556;DHT22;11956;53.184;8.578;2023-06-26T01:20:41;22.10;99.90
23556;DHT22;11956;53.184;8.578;2023-06-26T01:23:47;22.10;99.90
23556;DHT22;11956;53.184;8.578;2023-06-26T01:26:51;22.00;99.90
23556;DHT22;11956;53.184;8.578;2023-06-26T01:29:53;22.00;99.90
23556;DHT22;11956;53.184;8.578;2023-06-26T01:32:54;22.00;99.90
23556;DHT22;11956;53.184;8.578;2023-06-26T01:35:56;21.90;99.90
23556;DHT22;11956;53.184;8.578;2023-06-26T01:38:57;21.90;99.90
23556;DHT22;11956;53.184;8.578;2023-06-26T01:41:58;21.80;99.90
23556;DHT22;11956;53.184;8.578;2023-06-26T01:45:10;21.90;99.90
23556;DHT22;11956;53.184;8.578;2023-06-26T01:48:27;21.90;99.90
23556;DHT22;11956;53.184;8.578;2023-06-26T01:51:36;21.90;99.90
23556;DHT22;11956;53.184;8.578;2023-06-26T01:58:24;21.90;99.90
23556;DHT22;11956;53.184;8.578;2023-06-26T02:01:25;21.90;99.90
23556;DHT22;11956;53.184;8.578;2023-06-26T02:04:26;21.90;99.90
23556;DHT22;11956;53.184;8.578;2023-06-26T02:07:27;21.90;99.90
23556;DHT22;11956;53.184;8.578;2023-06-26T02:10:30;21.80;99.90
23556;DHT22;11956;53.184;8.578;2023-06-26T02:13:31;21.80;99.90
23556;DHT22;11956;53.184;8.578;2023-06-26T02:16:32;21.80;99.90
23556;DHT22;11956;53.184;8.578;2023-06-26T02:19:33;21.80;99.90
23556;DHT22;11956;53.184;8.578;2023-06-26T02:22:34;21.80;99.90
23556;DHT22;11956;53.184;8.578;2023-06-26T02:25:35;21.70;99.90
23556;DHT22;11956;53.184;8.578;2023-06-26T02:28:36;21.70;99.90
23556;DHT22;11956;53.184;8.578;2023-06-26T02:31:37;21.70;99.90
23556;DHT22;11956;53.184;8.578;2023-06-26T02:34:37;21.60;99.90
23556;DHT22;11956;53.184;8.578;2023-06-26T02:37:38;21.60;99.90
23556;DHT22;11956;53.184;8.578;2023-06-26T02:40:39;21.60;99.90
23556;DHT22;11956;53.184;8.578;2023-06-26T02:43:40;21.60;99.90
23556;DHT22;11956;53.184;8.578;2023-06-26T02:46:41;21.60;99.90
23556;DHT22;11956;53.184;8.578;2023-06-26T02:49:43;21.60;99.90
23556;DHT22;11956;53.184;8.578;2023-06-26T02:52:43;21.60;99.90
23556;DHT22;11956;53.184;8.578;2023-06-26T02:55:44;21.50;99.90
23556;DHT22;11956;53.184;8.578;2023-06-26T02:58:48;21.60;99.90
23556;DHT22;11956;53.184;8.578;2023-06-26T03:01:49;21.60;99.90
23556;DHT22;11956;53.184;8.578;2023-06-26T03:04:49;21.50;99.90
23556;DHT22;11956;53.184;8.578;2023-06-26T03:07:51;21.50;99.90
23556;DHT22;11956;53.184;8.578;2023-06-26T03:10:52;21.50;99.90
23556;DHT22;11956;53.184;8.578;2023-06-26T03:13:52;21.50;99.90
23556;DHT22;11956;53.184;8.578;2023-06-26T03:16:53;21.50;99.90
23556;DHT22;11956;53.184;8.578;2023-06-26T03:19:59;21.50;99.90
23556;DHT22;11956;53.184;8.578;2023-06-26T03:23:12;21.60;99.90
23556;DHT22;11956;53.184;8.578;2023-06-26T03:26:13;21.60;99.90
23556;DHT22;11956;53.184;8.578;2023-06-26T03:29:15;21.60;99.90
23556;DHT22;11956;53.184;8.578;2023-06-26T03:32:16;21.50;99.90
23556;DHT22;11956;53.184;8.578;2023-06-26T03:35:16;21.60;99.90
23556;DHT22;11956;53.184;8.578;2023-06-26T03:38:19;21.60;99.90
23556;DHT22;11956;53.184;8.578;2023-06-26T03:41:21;21.70;99.90
23556;DHT22;11956;53.184;8.578;2023-06-26T03:44:22;21.70;99.90
23556;DHT22;11956;53.184;8.578;2023-06-26T03:47:23;21.70;99.90
23556;DHT22;11956;53.184;8.578;2023-06-26T03:50:24;21.70;99.90
23556;DHT22;11956;53.184;8.578;2023-06-26T03:53:25;21.90;99.90
23556;DHT22;11956;53.184;8.578;2023-06-26T03:56:26;22.10;99.90
23556;DHT22;11956;53.184;8.578;2023-06-26T03:59:27;22.30;99.90
23556;DHT22;11956;53.184;8.578;2023-06-26T04:02:28;22.60;99.90
23556;DHT22;11956;53.184;8.578;2023-06-26T04:05:29;22.60;99.90
23556;DHT22;11956;53.184;8.578;2023-06-26T04:08:30;22.80;99.90
23556;DHT22;11956;53.184;8.578;2023-06-26T04:11:31;23.00;99.90
23556;DHT22;11956;53.184;8.578;2023-06-26T04:14:32;23.20;99.90
23556;DHT22;11956;53.184;8.578;2023-06-26T04:17:33;23.50;99.90
23556;DHT22;11956;53.184;8.578;2023-06-26T04:20:39;23.50;99.90
23556;DHT22;11956;53.184;8.578;2023-06-26T04:24:10;23.80;99.90
23556;DHT22;11956;53.184;8.578;2023-06-26T04:27:11;24.00;99.90
23556;DHT22;11956;53.184;8.578;2023-06-26T04:30:14;23.90;99.90
23556;DHT22;11956;53.184;8.578;2023-06-26T04:33:16;24.20;99.90
23556;DHT22;11956;53.184;8.578;2023-06-26T04:36:18;24.40;99.90
23556;DHT22;11956;53.184;8.578;2023-06-26T04:39:20;24.90;99.90
23556;DHT22;11956;53.184;8.578;2023-06-26T04:42:22;25.00;99.90
23556;DHT22;11956;53.184;8.578;2023-06-26T04:45:27;25.30;99.90
23556;DHT22;11956;53.184;8.578;2023-06-26T04:48:35;25.60;99.90
23556;DHT22;11956;53.184;8.578;2023-06-26T04:52:01;25.70;99.90
23556;DHT22;11956;53.184;8.578;2023-06-26T04:55:34;25.60;99.90
23556;DHT22;11956;53.184;8.578;2023-06-26T04:58:57;26.00;99.90
23556;DHT22;11956;53.184;8.578;2023-06-26T05:01:58;26.00;99.90
23556;DHT22;11956;53.184;8.578;2023-06-26T05:04:59;26.40;99.90
23556;DHT22;11956;53.184;8.578;2023-06-26T05:08:23;26.00;99.90
23556;DHT22;11956;53.184;8.578;2023-06-26T05:11:26;26.50;99.90
23556;DHT22;11956;53.184;8.578;2023-06-26T05:14:27;26.70;99.90
23556;DHT22;11956;53.184;8.578;2023-06-26T05:17:28;26.80;99.90
23556;DHT22;11956;53.184;8.578;2023-06-26T05:20:29;26.70;99.90
23556;DHT22;11956;53.184;8.578;2023-06-26T05:23:32;26.30;99.90
23556;DHT22;11956;53.184;8.578;2023-06-26T05:26:34;25.70;99.90
23556;DHT22;11956;53.184;8.578;2023-06-26T05:29:35;25.90;99.90
23556;DHT22;11956;53.184;8.578;2023-06-26T05:32:38;26.70;99.90
23556;DHT22;11956;53.184;8.578;2023-06-26T05:35:41;27.40;99.90
23556;DHT22;11956;53.184;8.578;2023-06-26T05:38:42;28.00;99.90
23556;DHT22;11956;53.184;8.578;2023-06-26T05:41:44;28.10;99.90
23556;DHT22;11956;53.184;8.578;2023-06-26T05:44:52;28.80;99.90
23556;DHT22;11956;53.184;8.578;2023-06-26T05:47:53;29.50;99.90
23556;DHT22;11956;53.184;8.578;2023-06-26T05:50:54;29.70;99.90
23556;DHT22;11956;53.184;8.578;2023-06-26T05:53:55;29.50;99.90
23556;DHT22;11956;53.184;8.578;2023-06-26T05:56:57;29.60;99.90
23556;DHT22;11956;53.184;8.578;2023-06-26T06:00:02;29.40;99.90
23556;DHT22;11956;53.184;8.578;2023-06-26T06:03:14;29.90;99.90
23556;DHT22;11956;53.184;8.578;2023-06-26T06:06:14;30.50;99.90
23556;DHT22;11956;53.184;8.578;2023-06-26T06:09:16;30.70;99.90
23556;DHT22;11956;53.184;8.578;2023-06-26T06:12:17;30.90;99.90
23556;DHT22;11956;53.184;8.578;2023-06-26T06:15:18;30.80;99.50
23556;DHT22;11956;53.184;8.578;2023-06-26T06:18:19;31.30;99.10
23556;DHT22;11956;53.184;8.578;2023-06-26T06:21:20;31.40;98.50
23556;DHT22;11956;53.184;8.578;2023-06-26T06:24:21;31.90;97.90
23556;DHT22;11956;53.184;8.578;2023-06-26T06:27:21;32.40;96.80
23556;DHT22;11956;53.184;8.578;2023-06-26T06:30:23;32.80;95.90
23556;DHT22;11956;53.184;8.578;2023-06-26T06:33:24;33.50;94.40
23556;DHT22;11956;53.184;8.578;2023-06-26T06:36:25;34.20;93.30
23556;DHT22;11956;53.184;8.578;2023-06-26T06:39:26;34.80;92.20
23556;DHT22;11956;53.184;8.578;2023-06-26T06:42:27;35.20;91.20
23556;DHT22;11956;53.184;8.578;2023-06-26T06:45:28;35.30;90.80
23556;DHT22;11956;53.184;8.578;2023-06-26T06:48:30;35.30;90.20
23556;DHT22;11956;53.184;8.578;2023-06-26T06:51:31;34.40;90.30
23556;DHT22;11956;53.184;8.578;2023-06-26T06:54:54;32.50;93.20
23556;DHT22;11956;53.184;8.578;2023-06-26T06:57:55;32.30;93.80
23556;DHT22;11956;53.184;8.578;2023-06-26T07:00:57;31.60;94.70
23556;DHT22;11956;53.184;8.578;2023-06-26T07:03:58;31.00;95.80
23556;DHT22;11956;53.184;8.578;2023-06-26T07:06:58;31.10;95.90
23556;DHT22;11956;53.184;8.578;2023-06-26T07:10:02;31.10;96.10
23556;DHT22;11956;53.184;8.578;2023-06-26T07:13:04;31.10;96.30
23556;DHT22;11956;53.184;8.578;2023-06-26T07:16:05;31.70;95.90
23556;DHT22;11956;53.184;8.578;2023-06-26T07:19:06;32.70;95.10
23556;DHT22;11956;53.184;8.578;2023-06-26T07:22:07;34.10;92.60
23556;DHT22;11956;53.184;8.578;2023-06-26T07:25:08;35.50;90.00
23556;DHT22;11956;53.184;8.578;2023-06-26T07:28:11;34.30;91.30
23556;DHT22;11956;53.184;8.578;2023-06-26T07:31:12;34.30;91.20
23556;DHT22;11956;53.184;8.578;2023-06-26T07:34:13;33.20;92.20
23556;DHT22;11956;53.184;8.578;2023-06-26T07:37:14;32.10;94.20
23556;DHT22;11956;53.184;8.578;2023-06-26T07:40:15;31.30;95.90
23556;DHT22;11956;53.184;8.578;2023-06-26T07:43:18;31.50;96.10
23556;DHT22;11956;53.184;8.578;2023-06-26T07:46:18;32.10;95.20
23556;DHT22;11956;53.184;8.578;2023-06-26T07:49:19;31.40;96.30
23556;DHT22;11956;53.184;8.578;2023-06-26T07:52:20;30.50;98.00
23556;DHT22;11956;53.184;8.578;2023-06-26T07:55:21;30.30;98.90
23556;DHT22;11956;53.184;8.578;2023-06-26T07:58:22;30.70;98.50
23556;DHT22;11956;53.184;8.578;2023-06-26T08:01:24;30.30;99.00
23556;DHT22;11956;53.184;8.578;2023-06-26T08:04:27;29.30;99.90
23556;DHT22;11956;53.184;8.578;2023-06-26T08:07:30;27.90;99.90
23556;DHT22;11956;53.184;8.578;2023-06-26T08:10:31;26.80;99.90
23556;DHT22;11956;53.184;8.578;2023-06-26T08:13:32;26.00;99.90
23556;DHT22;11956;53.184;8.578;2023-06-26T08:16:32;25.10;99.90
23556;DHT22;11956;53.184;8.578;2023-06-26T08:19:33;24.70;99.90
23556;DHT22;11956;53.184;8.578;2023-06-26T08:22:34;24.40;99.90
23556;DHT22;11956;53.184;8.578;2023-06-26T08:25:36;24.10;99.90
23556;DHT22;11956;53.184;8.578;2023-06-26T08:28:36;23.40;99.90
23556;DHT22;11956;53.184;8.578;2023-06-26T08:31:39;23.00;99.90
23556;DHT22;11956;53.184;8.578;2023-06-26T08:34:40;22.90;99.90
23556;DHT22;11956;53.184;8.578;2023-06-26T08:37:42;22.70;99.90
23556;DHT22;11956;53.184;8.578;2023-06-26T08:40:43;22.50;99.90
23556;DHT22;11956;53.184;8.578;2023-06-26T08:43:44;22.60;99.90
23556;DHT22;11956;53.184;8.578;2023-06-26T08:46:45;22.70;99.90
23556;DHT22;11956;53.184;8.578;2023-06-26T08:49:56;23.00;99.90
23556;DHT22;11956;53.184;8.578;2023-06-26T08:53:27;23.10;99.90
23556;DHT22;11956;53.184;8.578;2023-06-26T08:56:41;22.80;99.90
23556;DHT22;11956;53.184;8.578;2023-06-26T08:59:43;23.00;99.90
23556;DHT22;11956;53.184;8.578;2023-06-26T09:02:45;23.50;99.90
23556;DHT22;11956;53.184;8.578;2023-06-26T09:05:46;24.20;99.90
23556;DHT22;11956;53.184;8.578;2023-06-26T09:08:47;25.50;99.90
23556;DHT22;11956;53.184;8.578;2023-06-26T09:11:47;25.40;99.90
23556;DHT22;11956;53.184;8.578;2023-06-26T09:14:50;25.10;99.90
23556;DHT22;11956;53.184;8.578;2023-06-26T09:17:56;24.70;99.90
23556;DHT22;11956;53.184;8.578;2023-06-26T09:20:58;26.20;99.90
23556;DHT22;11956;53.184;8.578;2023-06-26T09:23:59;27.60;99.90
23556;DHT22;11956;53.184;8.578;2023-06-26T09:27:01;27.80;99.90
23556;DHT22;11956;53.184;8.578;2023-06-26T09:30:03;27.50;99.90
23556;DHT22;11956;53.184;8.578;2023-06-26T09:33:23;27.80;99.90
23556;DHT22;11956;53.184;8.578;2023-06-26T09:36:25;28.40;99.90
23556;DHT22;11956;53.184;8.578;2023-06-26T09:39:30;28.70;99.90
23556;DHT22;11956;53.184;8.578;2023-06-26T09:42:31;28.50;99.90
23556;DHT22;11956;53.184;8.578;2023-06-26T09:45:33;27.80;99.90
23556;DHT22;11956;53.184;8.578;2023-06-26T09:48:36;28.00;99.90
23556;DHT22;11956;53.184;8.578;2023-06-26T09:51:39;28.30;99.90
23556;DHT22;11956;53.184;8.578;2023-06-26T09:54:42;28.90;99.90
23556;DHT22;11956;53.184;8.578;2023-06-26T09:57:47;29.00;99.90
23556;DHT22;11956;53.184;8.578;2023-06-26T10:00:50;28.50;99.90
23556;DHT22;11956;53.184;8.578;2023-06-26T10:03:53;30.20;99.90
23556;DHT22;11956;53.184;8.578;2023-06-26T10:06:56;32.80;95.90
23556;DHT22;11956;53.184;8.578;2023-06-26T10:09:58;31.80;94.80
23556;DHT22;11956;53.184;8.578;2023-06-26T10:13:08;30.80;96.30
23556;DHT22;11956;53.184;8.578;2023-06-26T10:16:27;29.40;98.50
23556;DHT22;11956;53.184;8.578;2023-06-26T10:19:29;28.30;98.40
23556;DHT22;11956;53.184;8.578;2023-06-26T10:22:37;28.90;97.00
23556;DHT22;11956;53.184;8.578;2023-06-26T10:25:44;28.60;97.00
23556;DHT22;11956;53.184;8.578;2023-06-26T10:28:48;27.90;98.80
23556;DHT22;11956;53.184;8.578;2023-06-26T10:31:57;27.90;98.70
23556;DHT22;11956;53.184;8.578;2023-06-26T10:34:59;27.30;99.90
23556;DHT22;11956;53.184;8.578;2023-06-26T10:38:03;29.00;97.30
23556;DHT22;11956;53.184;8.578;2023-06-26T10:41:10;30.00;95.80
23556;DHT22;11956;53.184;8.578;2023-06-26T10:44:16;29.50;95.60
23556;DHT22;11956;53.184;8.578;2023-06-26T10:47:33;28.80;96.70
23556;DHT22;11956;53.184;8.578;2023-06-26T10:50:36;28.80;96.40
23556;DHT22;11956;53.184;8.578;2023-06-26T10:53:38;29.00;95.20
23556;DHT22;11956;53.184;8.578;2023-06-26T10:56:50;28.70;95.30
23556;DHT22;11956;53.184;8.578;2023-06-26T11:00:08;29.00;95.50
23556;DHT22;11956;53.184;8.578;2023-06-26T11:03:23;28.50;95.20
23556;DHT22;11956;53.184;8.578;2023-06-26T11:06:25;27.80;96.80
23556;DHT22;11956;53.184;8.578;2023-06-26T11:09:26;26.20;97.70
23556;DHT22;11956;53.184;8.578;2023-06-26T11:12:42;25.60;99.60
23556;DHT22;11956;53.184;8.578;2023-06-26T11:15:44;26.00;99.20
23556;DHT22;11956;53.184;8.578;2023-06-26T11:18:45;26.10;98.70
23556;DHT22;11956;53.184;8.578;2023-06-26T11:21:47;26.30;99.00
23556;DHT22;11956;53.184;8.578;2023-06-26T11:24:49;26.50;99.40
23556;DHT22;11956;53.184;8.578;2023-06-26T11:27:55;26.80;99.20
23556;DHT22;11956;53.184;8.578;2023-06-26T11:30:56;26.30;99.40
23556;DHT22;11956;53.184;8.578;2023-06-26T11:33:58;26.00;99.70
23556;DHT22;11956;53.184;8.578;2023-06-26T11:37:00;25.40;99.90
23556;DHT22;11956;53.184;8.578;2023-06-26T11:40:20;25.30;99.70
23556;DHT22;11956;53.184;8.578;2023-06-26T11:43:22;25.40;99.90
23556;DHT22;11956;53.184;8.578;2023-06-26T11:46:23;25.50;99.90
23556;DHT22;11956;53.184;8.578;2023-06-26T11:49:24;25.50;99.90
23556;DHT22;11956;53.184;8.578;2023-06-26T11:52:27;25.30;99.90
23556;DHT22;11956;53.184;8.578;2023-06-26T11:55:28;25.50;99.90
23556;DHT22;11956;53.184;8.578;2023-06-26T11:58:28;25.50;99.50
23556;DHT22;11956;53.184;8.578;2023-06-26T12:01:43;25.30;99.40
23556;DHT22;11956;53.184;8.578;2023-06-26T12:04:47;25.30;99.90
23556;DHT22;11956;53.184;8.578;2023-06-26T12:07:50;25.40;99.90
23556;DHT22;11956;53.184;8.578;2023-06-26T12:10:51;25.40;99.90
23556;DHT22;11956;53.184;8.578;2023-06-26T12:13:52;25.10;99.90
23556;DHT22;11956;53.184;8.578;2023-06-26T12:16:53;25.40;99.90
23556;DHT22;11956;53.184;8.578;2023-06-26T12:19:54;25.70;99.20
23556;DHT22;11956;53.184;8.578;2023-06-26T12:22:55;25.50;99.80
23556;DHT22;11956;53.184;8.578;2023-06-26T12:25:56;25.50;99.90
23556;DHT22;11956;53.184;8.578;2023-06-26T12:29:08;25.60;99.70
23556;DHT22;11956;53.184;8.578;2023-06-26T12:32:11;25.30;99.90
23556;DHT22;11956;53.184;8.578;2023-06-26T12:35:13;25.30;99.90
23556;DHT22;11956;53.184;8.578;2023-06-26T12:38:14;25.30;99.90
23556;DHT22;11956;53.184;8.578;2023-06-26T12:41:16;25.50;99.90
23556;DHT22;11956;53.184;8.578;2023-06-26T12:44:28;26.00;99.90
23556;DHT22;11956;53.184;8.578;2023-06-26T12:47:30;26.00;99.40
23556;DHT22;11956;53.184;8.578;2023-06-26T12:50:37;26.20;99.10
23556;DHT22;11956;53.184;8.578;2023-06-26T12:53:43;26.10;98.50
23556;DHT22;11956;53.184;8.578;2023-06-26T12:56:44;25.80;98.60
23556;DHT22;11956;53.184;8.578;2023-06-26T12:59:45;25.20;99.30
23556;DHT22;11956;53.184;8.578;2023-06-26T13:02:46;25.20;99.80
23556;DHT22;11956;53.184;8.578;2023-06-26T13:05:47;25.40;99.90
23556;DHT22;11956;53.184;8.578;2023-06-26T13:08:48;25.40;99.90
23556;DHT22;11956;53.184;8.578;2023-06-26T13:11:49;25.50;99.90
23556;DHT22;11956;53.184;8.578;2023-06-26T13:14:50;25.10;99.90
23556;DHT22;11956;53.184;8.578;2023-06-26T13:17:51;24.80;99.90
23556;DHT22;11956;53.184;8.578;2023-06-26T13:20:51;24.50;99.90
23556;DHT22;11956;53.184;8.578;2023-06-26T13:23:52;24.70;99.90
23556;DHT22;11956;53.184;8.578;2023-06-26T13:26:53;25.10;99.90
23556;DHT22;11956;53.184;8.578;2023-06-26T13:29:54;25.40;99.90
23556;DHT22;11956;53.184;8.578;2023-06-26T13:32:55;25.40;99.10
23556;DHT22;11956;53.184;8.578;2023-06-26T13:35:57;25.20;99.00
23556;DHT22;11956;53.184;8.578;2023-06-26T13:38:57;25.30;98.00
23556;DHT22;11956;53.184;8.578;2023-06-26T13:41:58;25.00;98.20
23556;DHT22;11956;53.184;8.578;2023-06-26T13:45:00;25.10;97.60
23556;DHT22;11956;53.184;8.578;2023-06-26T13:48:01;25.20;97.10
23556;DHT22;11956;53.184;8.578;2023-06-26T13:51:02;24.80;97.40
23556;DHT22;11956;53.184;8.578;2023-06-26T13:54:03;24.80;97.70
23556;DHT22;11956;53.184;8.578;2023-06-26T13:57:04;24.80;98.90
23556;DHT22;11956;53.184;8.578;2023-06-26T14:00:06;25.00;98.40
23556;DHT22;11956;53.184;8.578;2023-06-26T14:03:13;24.70;98.80
23556;DHT22;11956;53.184;8.578;2023-06-26T14:06:14;24.90;99.10
23556;DHT22;11956;53.184;8.578;2023-06-26T14:09:15;24.70;98.40
23556;DHT22;11956;53.184;8.578;2023-06-26T14:12:16;24.20;99.30
23556;DHT22;11956;53.184;8.578;2023-06-26T14:15:17;23.90;99.90
23556;DHT22;11956;53.184;8.578;2023-06-26T14:18:18;24.10;99.90
23556;DHT22;11956;53.184;8.578;2023-06-26T14:21:19;23.90;99.90
23556;DHT22;11956;53.184;8.578;2023-06-26T14:24:20;24.10;99.90
23556;DHT22;11956;53.184;8.578;2023-06-26T14:27:21;24.50;99.10
23556;DHT22;11956;53.184;8.578;2023-06-26T14:30:21;24.50;98.60
23556;DHT22;11956;53.184;8.578;2023-06-26T14:33:22;24.50;99.20
23556;DHT22;11956;53.184;8.578;2023-06-26T14:36:23;24.70;99.50
23556;DHT22;11956;53.184;8.578;2023-06-26T14:39:25;24.70;99.40
23556;DHT22;11956;53.184;8.578;2023-06-26T14:42:26;24.60;99.20
23556;DHT22;11956;53.184;8.578;2023-06-26T14:45:27;24.70;99.80
23556;DHT22;11956;53.184;8.578;2023-06-26T14:48:28;24.60;99.30
23556;DHT22;11956;53.184;8.578;2023-06-26T14:51:29;24.40;99.30
23556;DHT22;11956;53.184;8.578;2023-06-26T14:54:30;24.10;99.50
23556;DHT22;11956;53.184;8.578;2023-06-26T14:57:31;24.20;99.90
23556;DHT22;11956;53.184;8.578;2023-06-26T15:00:32;24.00;99.40
23556;DHT22;11956;53.184;8.578;2023-06-26T15:03:33;23.90;99.90
23556;DHT22;11956;53.184;8.578;2023-06-26T15:06:34;23.80;99.90
23556;DHT22;11956;53.184;8.578;2023-06-26T15:09:35;23.70;99.90
23556;DHT22;11956;53.184;8.578;2023-06-26T15:12:36;23.60;99.90
23556;DHT22;11956;53.184;8.578;2023-06-26T15:15:37;23.60;99.90
23556;DHT22;11956;53.184;8.578;2023-06-26T15:18:38;23.60;99.90
23556;DHT22;11956;53.184;8.578;2023-06-26T15:21:38;23.80;99.70
23556;DHT22;11956;53.184;8.578;2023-06-26T15:24:39;23.70;98.40
23556;DHT22;11956;53.184;8.578;2023-06-26T15:27:40;24.00;97.60
23556;DHT22;11956;53.184;8.578;2023-06-26T15:30:41;24.30;96.90
23556;DHT22;11956;53.184;8.578;2023-06-26T15:33:42;24.40;95.90
23556;DHT22;11956;53.184;8.578;2023-06-26T15:36:42;24.30;95.90
23556;DHT22;11956;53.184;8.578;2023-06-26T15:39:43;24.40;95.80
23556;DHT22;11956;53.184;8.578;2023-06-26T15:42:45;24.40;95.60
23556;DHT22;11956;53.184;8.578;2023-06-26T15:45:50;24.00;96.90
23556;DHT22;11956;53.184;8.578;2023-06-26T15:48:50;23.70;97.00
23556;DHT22;11956;53.184;8.578;2023-06-26T15:51:51;23.50;97.10
23556;DHT22;11956;53.184;8.578;2023-06-26T15:54:52;23.60;97.40
23556;DHT22;11956;53.184;8.578;2023-06-26T15:57:53;23.50;97.10
23556;DHT22;11956;53.184;8.578;2023-06-26T16:00:54;23.50;97.00
23556;DHT22;11956;53.184;8.578;2023-06-26T16:03:55;23.50;97.50
23556;DHT22;11956;53.184;8.578;2023-06-26T16:06:55;23.50;97.60
23556;DHT22;11956;53.184;8.578;2023-06-26T16:09:57;23.10;97.90
23556;DHT22;11956;53.184;8.578;2023-06-26T16:12:58;22.90;98.10
23556;DHT22;11956;53.184;8.578;2023-06-26T16:15:59;22.70;97.70
23556;DHT22;11956;53.184;8.578;2023-06-26T16:19:00;22.80;98.10
23556;DHT22;11956;53.184;8.578;2023-06-26T16:22:02;22.90;98.60
23556;DHT22;11956;53.184;8.578;2023-06-26T16:25:03;22.80;98.90
23556;DHT22;11956;53.184;8.578;2023-06-26T16:28:05;22.60;99.40
23556;DHT22;11956;53.184;8.578;2023-06-26T16:31:06;22.70;99.50
23556;DHT22;11956;53.184;8.578;2023-06-26T16:34:07;22.70;99.20
23556;DHT22;11956;53.184;8.578;2023-06-26T16:37:08;22.50;99.40
23556;DHT22;11956;53.184;8.578;2023-06-26T16:40:09;22.40;99.80
23556;DHT22;11956;53.184;8.578;2023-06-26T16:43:10;22.30;99.80
23556;DHT22;11956;53.184;8.578;2023-06-26T16:46:14;22.30;99.90
23556;DHT22;11956;53.184;8.578;2023-06-26T16:49:15;22.40;99.90
23556;DHT22;11956;53.184;8.578;2023-06-26T16:52:16;22.60;99.90
23556;DHT22;11956;53.184;8.578;2023-06-26T16:55:17;22.70;99.90
23556;DHT22;11956;53.184;8.578;2023-06-26T16:58:18;22.50;99.90
23556;DHT22;11956;53.184;8.578;2023-06-26T17:01:19;22.30;99.90
23556;DHT22;11956;53.184;8.578;2023-06-26T17:04:24;22.30;99.90
23556;DHT22;11956;53.184;8.578;2023-06-26T17:07:25;22.10;99.90
23556;DHT22;11956;53.184;8.578;2023-06-26T17:10:26;22.10;99.90
23556;DHT22;11956;53.184;8.578;2023-06-26T17:13:27;22.10;99.90
23556;DHT22;11956;53.184;8.578;2023-06-26T17:16:28;21.90;99.90
23556;DHT22;11956;53.184;8.578;2023-06-26T17:19:29;22.10;99.90
23556;DHT22;11956;53.184;8.578;2023-06-26T17:22:32;22.10;99.90
23556;DHT22;11956;53.184;8.578;2023-06-26T17:25:33;21.70;99.90
23556;DHT22;11956;53.184;8.578;2023-06-26T17:28:34;21.60;99.90
23556;DHT22;11956;53.184;8.578;2023-06-26T17:31:35;21.50;99.90
23556;DHT22;11956;53.184;8.578;2023-06-26T17:34:36;21.40;99.90
23556;DHT22;11956;53.184;8.578;2023-06-26T17:37:37;21.40;99.90
23556;DHT22;11956;53.184;8.578;2023-06-26T17:40:38;21.50;99.90
23556;DHT22;11956;53.184;8.578;2023-06-26T17:43:39;21.50;99.90
23556;DHT22;11956;53.184;8.578;2023-06-26T17:46:39;21.60;99.90
23556;DHT22;11956;53.184;8.578;2023-06-26T17:49:40;21.30;99.90
23556;DHT22;11956;53.184;8.578;2023-06-26T17:52:41;21.30;99.90
23556;DHT22;11956;53.184;8.578;2023-06-26T17:55:42;21.20;99.90
23556;DHT22;11956;53.184;8.578;2023-06-26T17:58:43;21.30;99.90
23556;DHT22;11956;53.184;8.578;2023-06-26T18:01:44;21.30;99.90
23556;DHT22;11956;53.184;8.578;2023-06-26T18:04:45;21.10;99.90
23556;DHT22;11956;53.184;8.578;2023-06-26T18:07:46;21.00;99.90
23556;DHT22;11956;53.184;8.578;2023-06-26T18:10:47;20.90;99.90
23556;DHT22;11956;53.184;8.578;2023-06-26T18:13:48;20.90;99.90
23556;DHT22;11956;53.184;8.578;2023-06-26T18:16:49;20.70;99.90
23556;DHT22;11956;53.184;8.578;2023-06-26T18:19:50;20.70;99.90
23556;DHT22;11956;53.184;8.578;2023-06-26T18:22:51;20.70;99.90
23556;DHT22;11956;53.184;8.578;2023-06-26T18:25:53;20.60;99.90
23556;DHT22;11956;53.184;8.578;2023-06-26T18:28:54;20.50;99.90
23556;DHT22;11956;53.184;8.578;2023-06-26T18:31:56;20.30;99.90
23556;DHT22;11956;53.184;8.578;2023-06-26T18:34:57;20.30;99.90
23556;DHT22;11956;53.184;8.578;2023-06-26T18:37:58;20.40;99.90
23556;DHT22;11956;53.184;8.578;2023-06-26T18:40:59;20.30;99.90
23556;DHT22;11956;53.184;8.578;2023-06-26T18:44:00;20.30;99.90
23556;DHT22;11956;53.184;8.578;2023-06-26T18:47:01;20.20;99.90
23556;DHT22;11956;53.184;8.578;2023-06-26T18:50:02;20.20;99.90
23556;DHT22;11956;53.184;8.578;2023-06-26T18:53:03;20.10;99.90
23556;DHT22;11956;53.184;8.578;2023-06-26T18:56:06;20.00;99.90
23556;DHT22;11956;53.184;8.578;2023-06-26T18:59:07;19.90;99.90
23556;DHT22;11956;53.184;8.578;2023-06-26T19:02:08;19.80;99.90
23556;DHT22;11956;53.184;8.578;2023-06-26T19:05:09;19.80;99.90
23556;DHT22;11956;53.184;8.578;2023-06-26T19:08:10;19.70;99.90
23556;DHT22;11956;53.184;8.578;2023-06-26T19:11:12;19.50;99.90
23556;DHT22;11956;53.184;8.578;2023-06-26T19:14:14;19.50;99.90
23556;DHT22;11956;53.184;8.578;2023-06-26T19:17:15;19.40;99.90